KCNU/CNU METAR and TAF weather

Enter ICAO airport designator
Station Type Date Time Source
KCNU METAR 2019/02/23 02:52 UTC NOAA

KCNU 230252Z AUTO 11010KT 1 1/2SM -RA BR OVC002 06/04 A2995 RMK AO2 RAB13E24B43 SLP144 P0001 60002 T00560044 58014


Station Type Date Time Source
KCNU Decoded METAR 2019/02/23 02:52 UTC NOAA

CHANUTE JOHNSON AIRPORT, KS, United States (KCNU) 37-40N 95-29W 297M
Feb 22, 2019 - 09:52 PM EST / 2019.02.23 0252 UTC
Wind: from the ESE (110 degrees) at 12 MPH (10 KT):0
Visibility: 1 1/2 mile(s):0
Sky conditions: overcast
Weather: light rain; mist
Precipitation last hour: 0.01 inches
Temperature: 42.1 F (5.6 C)
Dew Point: 39.9 F (4.4 C)
Relative Humidity: 91%
Pressure (altimeter): 29.95 in. Hg (1014 hPa)
Pressure tendency: 0.04 inches (1.4 hPa) lower than three hours ago
ob: KCNU 230252Z AUTO 11010KT 1 1/2SM -RA BR OVC002 06/04 A2995 RMK AO2 RAB13E24B43 SLP144 P0001 60002 T00560044 58014
cycle: 3

Station Type Date Time Source
KCNU TAF 2019/02/23 01:54 UTC NOAA

TAF
AMD KCNU 230051Z 2301/2324 11007KT 2SM BR VCSH OVC003
FM230800 12006KT 2SM -RA BR OVC003
FM231500 14013KT 2SM -RA BR OVC002
FM231700 18022G30KT 4SM -RA BKN010
FM231800 20026G34KT P6SM BKN050


Example: see airport list